createdAt,value
2023-02-13T00:00:38.159Z,56.13
2023-02-13T00:05:38.941Z,44.65
2023-02-13T00:10:39.703Z,45.50
2023-02-13T00:15:40.598Z,45.00
2023-02-13T00:20:41.360Z,47.05
2023-02-13T00:25:42.126Z,44.35
2023-02-13T00:30:42.881Z,45.45
2023-02-13T00:35:43.759Z,40.55
2023-02-13T00:40:44.485Z,38.42
2023-02-13T00:45:45.309Z,37.13
2023-02-13T00:50:47.170Z,44.28
2023-02-13T00:55:48.256Z,41.25
2023-02-13T01:00:49.235Z,42.25
2023-02-13T01:05:50.902Z,42.50
2023-02-13T01:10:51.740Z,44.40
2023-02-13T01:15:52.666Z,42.72
2023-02-13T01:21:00.053Z,46.50
2023-02-13T01:26:06.159Z,44.63
2023-02-13T01:31:07.054Z,46.95
2023-02-13T01:36:10.496Z,45.92
2023-02-13T01:41:12.238Z,51.70
2023-02-13T01:46:18.641Z,58.97
2023-02-13T01:51:27.729Z,55.28
2023-02-13T01:56:40.033Z,58.30
2023-02-13T02:01:43.680Z,57.65
2023-02-13T02:06:56.380Z,57.80
2023-02-13T02:12:05.176Z,58.67
2023-02-13T02:17:09.364Z,62.92
2023-02-13T02:24:32.120Z,59.80
2023-02-13T02:36:05.922Z,67.15
2023-02-13T02:41:40.856Z,54.25
2023-02-13T02:47:14.377Z,68.82
2023-02-13T02:52:19.766Z,63.38
2023-02-13T03:06:09.978Z,66.90
2023-02-13T03:11:29.153Z,58.55
2023-02-13T03:16:48.539Z,55.53
2023-02-13T03:22:16.896Z,62.72
2023-02-13T03:30:07.986Z,59.10
2023-02-13T03:35:52.165Z,56.53
2023-02-13T03:41:19.235Z,62.67
2023-02-13T03:46:21.689Z,58.30
2023-02-13T03:51:50.847Z,65.00
2023-02-13T03:57:11.585Z,54.80
2023-02-13T04:02:19.877Z,53.28
2023-02-13T04:07:30.125Z,51.60
2023-02-13T04:12:48.425Z,49.38
2023-02-13T04:17:54.470Z,50.53
2023-02-13T04:22:55.203Z,56.42
2023-02-13T04:27:55.962Z,57.53
2023-02-13T04:32:56.808Z,52.05
2023-02-13T04:37:57.572Z,48.25
2023-02-13T04:42:58.497Z,54.15
2023-02-13T04:47:59.457Z,47.17
2023-02-13T04:53:00.206Z,47.17
2023-02-13T04:58:01.235Z,46.55
2023-02-13T05:03:07.064Z,45.17
2023-02-13T05:08:08.362Z,42.38
2023-02-13T05:13:09.559Z,47.67
2023-02-13T05:18:10.264Z,41.83
2023-02-13T05:23:22.584Z,48.70
2023-02-13T05:28:41.979Z,38.92
2023-02-13T05:33:42.992Z,46.37
2023-02-13T05:38:43.749Z,56.85
2023-02-13T05:43:44.535Z,54.47
2023-02-13T05:48:45.276Z,60.58
2023-02-13T05:53:46.011Z,56.58
2023-02-13T05:58:46.769Z,51.63
2023-02-13T06:03:48.241Z,61.95
2023-02-13T06:08:49.538Z,61.33
2023-02-13T06:13:50.406Z,63.40
2023-02-13T06:18:51.266Z,63.17
2023-02-13T06:23:52.227Z,65.32
2023-02-13T06:28:56.086Z,63.60
2023-02-13T06:33:57.327Z,73.87
2023-02-13T06:38:58.030Z,69.80
2023-02-13T06:43:58.837Z,71.10
2023-02-13T06:48:59.558Z,80.43
2023-02-13T06:54:00.361Z,77.00
2023-02-13T06:59:01.276Z,75.28
2023-02-13T07:04:02.510Z,72.20
2023-02-13T07:09:04.062Z,71.20
2023-02-13T07:14:08.914Z,72.78
2023-02-13T07:19:09.692Z,77.20
2023-02-13T07:24:10.683Z,77.07
2023-02-13T07:29:12.408Z,76.80
2023-02-13T07:34:13.707Z,81.63
2023-02-13T07:39:14.699Z,86.15
2023-02-13T07:44:15.469Z,87.78
2023-02-13T07:49:16.197Z,85.07
2023-02-13T07:54:16.942Z,72.68
2023-02-13T07:59:17.692Z,76.12
2023-02-13T08:04:18.514Z,73.72
2023-02-13T08:09:40.744Z,71.30
2023-02-13T08:14:41.766Z,70.43
2023-02-13T08:19:42.516Z,72.12
2023-02-13T08:24:43.466Z,66.75
2023-02-13T08:29:44.398Z,67.90
2023-02-13T08:34:45.245Z,79.60
2023-02-13T08:39:46.026Z,66.12
2023-02-13T08:44:46.806Z,74.97
2023-02-13T08:49:47.584Z,81.40
2023-02-13T08:54:48.410Z,75.22
2023-02-13T08:59:49.153Z,57.60
2023-02-13T09:04:49.964Z,58.33
2023-02-13T09:09:50.733Z,61.13
2023-02-13T09:14:51.601Z,54.70
2023-02-13T09:19:52.332Z,45.72
2023-02-13T09:24:53.421Z,51.05
2023-02-13T09:29:54.144Z,50.60
2023-02-13T09:34:54.958Z,39.67
2023-02-13T09:39:55.910Z,44.28
2023-02-13T09:45:01.032Z,41.22
2023-02-13T09:57:39.563Z,40.30
2023-02-13T10:06:00.791Z,26.40
2023-02-13T10:11:39.158Z,29.23
2023-02-13T10:17:32.086Z,26.90
2023-02-13T10:22:43.827Z,29.23
2023-02-13T10:27:52.708Z,24.45
2023-02-13T10:34:20.973Z,25.15
2023-02-13T10:39:30.061Z,21.12
2023-02-13T10:49:51.889Z,22.13
2023-02-13T10:55:13.134Z,22.30
2023-02-13T11:01:52.413Z,21.08
2023-02-13T11:07:00.136Z,20.88
2023-02-13T11:12:24.713Z,24.85
2023-02-13T11:17:29.526Z,24.23
2023-02-13T11:22:37.195Z,26.10
2023-02-13T11:27:39.231Z,18.90
2023-02-13T11:32:40.374Z,22.55
2023-02-13T11:37:41.175Z,15.82
2023-02-13T11:42:42.873Z,19.15
2023-02-13T11:47:43.919Z,18.40
2023-02-13T11:52:54.736Z,18.12
2023-02-13T11:58:02.841Z,31.92
2023-02-13T12:03:29.989Z,22.05
2023-02-13T12:08:33.787Z,17.62
2023-02-13T12:13:38.410Z,20.80
2023-02-13T12:18:44.051Z,18.52
2023-02-13T12:24:22.638Z,20.90
2023-02-13T12:33:16.276Z,19.75
2023-02-13T12:38:33.483Z,20.73
2023-02-13T12:46:52.072Z,17.55
2023-02-13T12:52:30.632Z,19.95
2023-02-13T12:57:55.907Z,16.73
2023-02-13T13:06:12.252Z,18.02
2023-02-13T13:12:21.346Z,18.67
2023-02-13T13:17:39.545Z,20.52
2023-02-13T13:22:52.883Z,21.90
2023-02-13T13:33:13.205Z,21.35
2023-02-13T13:38:24.755Z,21.95
2023-02-13T13:43:41.043Z,24.60
2023-02-13T13:50:14.677Z,22.85
2023-02-13T13:56:07.098Z,23.25
2023-02-13T14:01:25.284Z,25.10
2023-02-13T14:13:28.936Z,28.80
2023-02-13T14:18:30.863Z,23.98
2023-02-13T14:23:49.167Z,27.10
2023-02-13T14:29:18.417Z,26.87
2023-02-13T14:34:25.793Z,34.97
2023-02-13T14:39:33.806Z,30.65
2023-02-13T14:44:48.605Z,23.85
2023-02-13T14:49:50.996Z,30.23
2023-02-13T14:54:55.587Z,27.20
2023-02-13T15:00:07.943Z,26.50
2023-02-13T15:05:14.582Z,27.03
2023-02-13T15:11:02.280Z,29.60
2023-02-13T15:16:07.515Z,29.77
2023-02-13T15:21:15.530Z,27.87
2023-02-13T15:26:23.029Z,31.27
2023-02-13T15:31:32.363Z,26.85
2023-02-13T15:36:40.654Z,21.10
2023-02-13T15:41:44.824Z,21.67
2023-02-13T15:46:52.981Z,24.02
2023-02-13T15:52:13.585Z,23.10
2023-02-13T15:57:14.771Z,24.83
2023-02-13T16:02:21.977Z,20.27
2023-02-13T16:07:22.719Z,30.35
2023-02-13T16:12:26.019Z,30.40
2023-02-13T16:24:00.050Z,37.65
2023-02-13T16:29:01.816Z,30.27
2023-02-13T16:34:24.866Z,23.75
2023-02-13T16:39:31.185Z,19.65
2023-02-13T16:44:32.435Z,22.05
2023-02-13T16:49:36.527Z,23.45
2023-02-13T16:54:50.650Z,23.08
2023-02-13T16:59:55.258Z,20.10
2023-02-13T17:05:41.302Z,19.37
2023-02-13T17:11:02.599Z,18.33
2023-02-13T17:16:03.837Z,26.02
2023-02-13T17:21:05.390Z,20.25
2023-02-13T17:26:06.282Z,19.08
2023-02-13T17:31:10.228Z,20.05
2023-02-13T17:36:12.339Z,18.70
2023-02-13T17:41:16.343Z,20.00
2023-02-13T17:46:17.408Z,19.23
2023-02-13T17:51:18.211Z,19.10
2023-02-13T17:56:18.983Z,20.85
2023-02-13T18:01:19.908Z,23.30
2023-02-13T18:06:20.844Z,22.48
2023-02-13T18:11:21.586Z,21.87
2023-02-13T18:16:24.529Z,21.25
2023-02-13T18:21:25.288Z,21.90
2023-02-13T18:26:26.114Z,18.95
2023-02-13T18:31:26.974Z,21.60
2023-02-13T18:36:27.981Z,26.58
2023-02-13T18:41:28.791Z,20.40
2023-02-13T18:46:29.904Z,17.52
2023-02-13T18:51:31.203Z,19.00
2023-02-13T18:56:31.980Z,16.58
2023-02-13T19:01:34.640Z,18.27
2023-02-13T19:06:39.617Z,21.48
2023-02-13T19:11:42.025Z,24.98
2023-02-13T19:16:42.865Z,25.20
2023-02-13T19:21:43.651Z,22.17
2023-02-13T19:26:44.451Z,22.37
2023-02-13T19:31:45.378Z,22.37
2023-02-13T19:36:46.409Z,24.92
2023-02-13T19:41:47.266Z,25.10
2023-02-13T19:46:48.424Z,23.80
2023-02-13T19:51:49.310Z,18.08
2023-02-13T19:56:50.464Z,24.60
2023-02-13T20:01:51.383Z,17.70
2023-02-13T20:06:57.398Z,14.25
2023-02-13T20:11:58.133Z,13.82
2023-02-13T20:16:59.021Z,15.63
2023-02-13T20:22:00.973Z,14.10
2023-02-13T20:27:01.735Z,9.30
2023-02-13T20:32:02.713Z,10.75
2023-02-13T20:37:03.592Z,12.15
2023-02-13T20:42:04.388Z,10.63
2023-02-13T20:47:05.222Z,8.68
2023-02-13T20:52:05.968Z,11.23
2023-02-13T20:57:06.787Z,10.18
2023-02-13T21:02:09.301Z,11.45
2023-02-13T21:07:10.495Z,13.93
2023-02-13T21:12:11.252Z,14.38
2023-02-13T21:17:12.012Z,12.18
2023-02-13T21:22:13.034Z,19.92
2023-02-13T21:27:13.791Z,15.95
2023-02-13T21:32:14.712Z,14.10
2023-02-13T21:37:15.655Z,17.35
2023-02-13T21:42:16.454Z,15.38
2023-02-13T21:47:17.283Z,17.02
2023-02-13T21:52:18.447Z,15.70
2023-02-13T21:57:19.201Z,18.30
2023-02-13T22:02:20.196Z,19.90
2023-02-13T22:07:21.149Z,24.60
2023-02-13T22:12:21.890Z,19.45
2023-02-13T22:17:22.636Z,20.45
2023-02-13T22:22:23.367Z,19.75
2023-02-13T22:27:24.104Z,21.55
2023-02-13T22:32:24.915Z,25.12
2023-02-13T22:37:25.733Z,25.48
2023-02-13T22:42:26.487Z,20.12
2023-02-13T22:47:29.811Z,18.95
2023-02-13T22:52:31.087Z,22.92
2023-02-13T22:57:31.882Z,21.58
2023-02-13T23:02:34.386Z,24.05
2023-02-13T23:07:35.284Z,20.35
2023-02-13T23:12:36.155Z,22.95
2023-02-13T23:17:56.892Z,23.92
2023-02-13T23:22:57.833Z,25.55
2023-02-13T23:27:58.612Z,28.27
2023-02-13T23:32:59.509Z,26.65
2023-02-13T23:38:00.382Z,26.15
2023-02-13T23:43:01.833Z,28.48
2023-02-13T23:48:03.055Z,26.12
2023-02-13T23:53:03.864Z,26.92
2023-02-13T23:58:04.683Z,28.48
